createdAt,value
2019-05-29T00:00:57.693Z,101659.45
2019-05-29T00:03:29.647Z,101654.01
2019-05-29T00:06:01.775Z,101655.18
2019-05-29T00:08:33.730Z,101661.20
2019-05-29T00:11:06.060Z,101680.45
2019-05-29T00:13:38.087Z,101669.95
2019-05-29T00:16:10.414Z,101676.71
2019-05-29T00:18:42.420Z,101683.10
2019-05-29T00:21:14.725Z,101681.15
2019-05-29T00:23:46.770Z,101691.23
2019-05-29T00:26:18.820Z,101697.19
2019-05-29T00:28:50.804Z,101686.26
2019-05-29T00:31:22.754Z,101694.19
2019-05-29T00:33:54.733Z,101691.32
2019-05-29T00:36:26.810Z,101692.57
2019-05-29T00:38:58.862Z,101695.00
2019-05-29T00:41:30.931Z,101699.82
2019-05-29T00:44:02.898Z,101691.42
2019-05-29T00:46:34.946Z,101701.23
2019-05-29T00:49:07.709Z,101700.28
2019-05-29T00:51:39.839Z,101715.94
2019-05-29T00:54:12.527Z,101708.48
2019-05-29T00:56:44.643Z,101727.45
2019-05-29T00:59:17.418Z,101724.86
2019-05-29T01:01:49.543Z,101724.52
2019-05-29T01:04:21.546Z,101725.98
2019-05-29T01:06:53.523Z,101731.00
2019-05-29T01:09:25.785Z,101725.70
2019-05-29T01:11:57.764Z,101730.72
2019-05-29T01:14:29.731Z,101731.80
2019-05-29T01:17:01.995Z,101734.43
2019-05-29T01:19:34.265Z,101734.77
2019-05-29T01:22:06.752Z,101735.52
2019-05-29T01:24:38.785Z,101739.60
2019-05-29T01:27:10.758Z,101746.42
2019-05-29T01:29:42.722Z,101750.74
2019-05-29T01:32:15.519Z,101752.88
2019-05-29T01:34:47.569Z,101757.58
2019-05-29T01:37:20.309Z,101755.95
2019-05-29T01:39:52.339Z,101756.86
2019-05-29T01:42:24.282Z,101738.66
2019-05-29T01:45:07.071Z,101770.34
2019-05-29T01:47:30.087Z,101771.41
2019-05-29T01:50:02.251Z,101771.79
2019-05-29T01:52:34.298Z,101772.31
2019-05-29T01:55:08.504Z,101782.88
2019-05-29T01:57:40.871Z,101764.92
2019-05-29T02:00:15.703Z,101772.16
2019-05-29T02:02:47.878Z,101772.48
2019-05-29T02:05:20.195Z,101779.61
2019-05-29T02:07:52.190Z,101786.45
2019-05-29T02:10:24.439Z,101786.22
2019-05-29T02:12:56.483Z,101789.80
2019-05-29T02:15:33.539Z,101786.63
2019-05-29T02:18:02.745Z,101796.97
2019-05-29T02:20:34.737Z,101796.70
2019-05-29T02:23:06.809Z,101803.92
2019-05-29T02:25:38.861Z,101732.69
2019-05-29T02:28:10.863Z,101794.56
2019-05-29T02:30:43.189Z,101800.20
2019-05-29T02:33:15.138Z,101811.37
2019-05-29T02:35:47.215Z,101810.82
2019-05-29T02:38:20.453Z,101815.26
2019-05-29T02:40:52.607Z,101818.65
2019-05-29T02:43:25.979Z,101818.09
2019-05-29T02:45:58.551Z,101832.20
2019-05-29T02:48:31.820Z,101832.95
2019-05-29T02:51:04.009Z,101840.57
2019-05-29T02:53:36.285Z,101838.66
2019-05-29T02:56:08.261Z,101837.89
2019-05-29T02:58:40.362Z,101841.77
2019-05-29T03:01:12.818Z,101844.41
2019-05-29T03:03:44.801Z,101855.13
2019-05-29T03:06:17.115Z,101855.08
2019-05-29T03:08:49.280Z,101858.84
2019-05-29T03:11:22.901Z,101864.77
2019-05-29T03:13:55.098Z,101861.41
2019-05-29T03:16:28.788Z,101871.20
2019-05-29T03:19:00.939Z,101870.71
2019-05-29T03:21:34.591Z,101873.41
2019-05-29T03:24:06.791Z,101875.48
2019-05-29T03:26:38.804Z,101816.50
2019-05-29T03:29:10.848Z,101885.67
2019-05-29T03:31:47.177Z,101890.52
2019-05-29T03:34:16.505Z,101886.97
2019-05-29T03:36:49.147Z,101895.34
2019-05-29T03:39:21.436Z,101844.72
2019-05-29T03:41:53.518Z,101903.88
2019-05-29T03:44:26.317Z,101896.67
2019-05-29T03:46:58.410Z,101906.20
2019-05-29T03:49:31.114Z,101900.17
2019-05-29T03:52:03.237Z,101906.19
2019-05-29T03:54:35.551Z,101911.39
2019-05-29T03:57:07.660Z,101917.75
2019-05-29T03:59:39.927Z,101920.30
2019-05-29T04:02:12.200Z,101921.19
2019-05-29T04:04:44.100Z,101938.50
2019-05-29T04:07:16.223Z,101938.16
2019-05-29T04:09:48.228Z,101895.93
2019-05-29T04:12:20.321Z,101947.38
2019-05-29T04:14:52.425Z,101954.05
2019-05-29T04:17:27.226Z,101960.95
2019-05-29T04:19:59.960Z,101910.67
2019-05-29T04:22:38.280Z,101970.38
2019-05-29T04:25:10.522Z,101973.53
2019-05-29T04:27:44.556Z,101982.30
2019-05-29T04:30:16.921Z,101981.84
2019-05-29T04:32:50.729Z,101985.25
2019-05-29T04:35:22.794Z,101988.77
2019-05-29T04:37:54.841Z,101981.34
2019-05-29T04:40:28.594Z,101986.50
2019-05-29T04:43:00.747Z,101996.03
2019-05-29T04:45:33.539Z,101997.91
2019-05-29T04:48:06.495Z,102000.48
2019-05-29T04:50:40.496Z,102000.72
2019-05-29T04:53:12.572Z,102004.26
2019-05-29T04:55:44.507Z,102013.30
2019-05-29T04:58:16.640Z,102012.25
2019-05-29T05:00:58.549Z,102020.31
2019-05-29T05:03:22.461Z,102016.93
2019-05-29T05:05:54.467Z,102018.77
2019-05-29T05:08:26.450Z,102018.11
2019-05-29T05:10:58.996Z,102021.09
2019-05-29T05:13:31.446Z,102031.70
2019-05-29T05:16:03.933Z,102025.11
2019-05-29T05:18:35.931Z,102039.58
2019-05-29T05:21:07.988Z,102044.45
2019-05-29T05:23:40.524Z,102049.94
2019-05-29T05:26:12.828Z,102051.42
2019-05-29T05:28:46.083Z,102059.12
2019-05-29T05:31:18.810Z,102008.23
2019-05-29T05:33:50.860Z,102063.24
2019-05-29T05:36:22.821Z,102065.48
2019-05-29T05:38:54.781Z,102088.32
2019-05-29T05:41:26.853Z,102068.48
2019-05-29T05:43:58.808Z,102079.54
2019-05-29T05:46:31.024Z,102075.19
2019-05-29T05:49:03.004Z,102085.75
2019-05-29T05:51:38.358Z,102105.46
2019-05-29T05:54:08.842Z,102094.85
2019-05-29T05:56:41.804Z,102098.22
2019-05-29T05:59:13.790Z,102038.47
2019-05-29T06:01:45.842Z,102102.97
2019-05-29T06:04:17.988Z,102092.31
2019-05-29T06:06:50.556Z,102119.14
2019-05-29T06:09:25.541Z,102120.21
2019-05-29T06:11:57.705Z,102120.45
2019-05-29T06:14:29.982Z,102129.90
2019-05-29T06:17:02.118Z,102124.05
2019-05-29T06:19:34.987Z,102133.50
2019-05-29T06:22:06.976Z,102135.06
2019-05-29T06:24:39.045Z,102140.07
2019-05-29T06:27:12.385Z,102143.48
2019-05-29T06:29:44.427Z,102151.59
2019-05-29T06:32:16.673Z,102150.98
2019-05-29T06:34:48.731Z,102088.67
2019-05-29T06:37:20.713Z,102163.98
2019-05-29T06:39:52.703Z,102174.75
2019-05-29T06:42:24.657Z,102167.27
2019-05-29T06:44:56.909Z,102171.38
2019-05-29T06:47:29.087Z,102176.03
2019-05-29T06:50:01.156Z,102177.72
2019-05-29T06:52:33.095Z,102168.91
2019-05-29T06:55:06.433Z,102174.98
2019-05-29T06:57:38.451Z,102186.48
2019-05-29T07:00:12.209Z,102207.02
2019-05-29T07:02:44.864Z,102189.23
2019-05-29T07:05:17.042Z,102192.98
2019-05-29T07:07:49.046Z,102195.19
2019-05-29T07:10:21.156Z,102200.20
2019-05-29T07:12:53.117Z,102193.81
2019-05-29T07:15:25.181Z,102196.00
2019-05-29T07:17:57.175Z,102200.16
2019-05-29T07:20:29.346Z,102202.19
2019-05-29T07:23:01.376Z,102212.86
2019-05-29T07:25:33.548Z,102204.65
2019-05-29T07:28:05.539Z,102209.84
2019-05-29T07:30:39.044Z,102214.03
2019-05-29T07:33:11.298Z,102222.30
2019-05-29T07:35:43.629Z,102220.06
2019-05-29T07:38:15.768Z,102218.95
2019-05-29T07:40:49.935Z,102220.05
2019-05-29T07:43:21.690Z,102224.09
2019-05-29T07:45:53.886Z,102225.89
2019-05-29T07:48:26.126Z,102246.67
2019-05-29T07:51:06.644Z,102232.69
2019-05-29T07:53:33.765Z,102246.58
2019-05-29T07:56:21.406Z,102241.36
2019-05-29T07:58:42.220Z,102244.80
2019-05-29T08:01:14.030Z,102248.19
2019-05-29T08:03:47.485Z,102247.44
2019-05-29T08:06:19.515Z,102252.58
2019-05-29T08:08:51.694Z,102246.74
2019-05-29T08:11:23.739Z,102256.06
2019-05-29T08:13:55.797Z,102269.44
2019-05-29T08:16:27.774Z,102252.44
2019-05-29T08:18:59.868Z,102261.21
2019-05-29T08:21:31.925Z,102269.52
2019-05-29T08:24:04.220Z,102270.70
2019-05-29T08:26:36.467Z,102273.94
2019-05-29T08:29:08.529Z,102277.26
2019-05-29T08:31:40.730Z,102281.98
2019-05-29T08:34:13.006Z,102290.75
2019-05-29T08:37:00.833Z,102288.61
2019-05-29T08:39:33.496Z,102302.31
2019-05-29T08:42:17.833Z,102297.19
2019-05-29T08:44:26.858Z,102293.03
2019-05-29T08:47:09.489Z,102303.23
2019-05-29T08:49:33.037Z,102304.63
2019-05-29T08:52:11.981Z,102311.95
2019-05-29T08:54:39.154Z,102313.06
2019-05-29T08:57:11.504Z,102311.06
2019-05-29T08:59:44.429Z,102322.06
2019-05-29T09:02:16.370Z,102324.22
2019-05-29T09:04:49.809Z,102325.42
2019-05-29T09:07:22.110Z,102329.52
2019-05-29T09:09:54.176Z,102322.67
2019-05-29T09:12:29.709Z,102321.76
2019-05-29T09:14:59.852Z,102324.19
2019-05-29T09:17:34.593Z,102338.59
2019-05-29T09:20:23.427Z,102331.77
2019-05-29T09:22:44.244Z,102336.20
2019-05-29T09:25:19.101Z,102344.27
2019-05-29T09:27:51.140Z,102340.69
2019-05-29T09:30:23.607Z,102344.66
2019-05-29T09:32:56.006Z,102348.35
2019-05-29T09:35:28.146Z,102352.28
2019-05-29T09:38:00.234Z,102356.21
2019-05-29T09:40:32.413Z,102350.52
2019-05-29T09:43:04.676Z,102366.54
2019-05-29T09:45:36.942Z,102366.80
2019-05-29T09:48:09.088Z,102371.77
2019-05-29T09:50:50.157Z,102373.70
2019-05-29T09:53:15.502Z,102378.36
2019-05-29T09:55:48.256Z,102379.09
2019-05-29T09:58:20.241Z,102363.45
2019-05-29T10:01:09.787Z,102373.97
2019-05-29T10:03:26.650Z,102373.46
2019-05-29T10:05:59.500Z,102368.47
2019-05-29T10:08:31.793Z,102378.97
2019-05-29T10:11:08.495Z,102383.08
2019-05-29T10:13:37.694Z,102377.70
2019-05-29T10:16:09.810Z,102378.05
2019-05-29T10:18:41.799Z,102384.91
2019-05-29T10:21:13.964Z,102379.39
2019-05-29T10:23:45.931Z,102392.39
2019-05-29T10:26:18.001Z,102395.13
2019-05-29T10:29:06.742Z,102405.70
2019-05-29T10:31:24.083Z,102398.16
2019-05-29T10:33:56.129Z,102392.27
2019-05-29T10:36:28.243Z,102392.92
2019-05-29T10:39:00.450Z,102400.63
2019-05-29T10:41:32.479Z,102405.38
2019-05-29T10:44:04.500Z,102404.44
2019-05-29T10:46:36.566Z,102400.80
2019-05-29T10:49:08.866Z,102410.77
2019-05-29T10:51:57.980Z,102401.03
2019-05-29T10:54:15.540Z,102405.34
2019-05-29T10:56:48.761Z,102407.27
2019-05-29T10:59:21.094Z,102415.06
2019-05-29T11:01:53.797Z,102418.48
2019-05-29T11:04:26.024Z,102415.59
2019-05-29T11:06:58.041Z,102349.48
2019-05-29T11:09:43.286Z,102428.70
2019-05-29T11:12:03.834Z,102369.80
2019-05-29T11:14:36.037Z,102429.53
2019-05-29T11:17:08.348Z,102424.23
2019-05-29T11:19:40.743Z,102425.92
2019-05-29T11:22:25.684Z,102430.64
2019-05-29T11:24:47.973Z,102430.59
2019-05-29T11:27:20.076Z,102444.57
2019-05-29T11:29:53.266Z,102433.25
2019-05-29T11:32:26.062Z,102443.58
2019-05-29T11:34:59.578Z,102386.72
2019-05-29T11:37:31.759Z,102434.09
2019-05-29T11:40:05.207Z,102442.33
2019-05-29T11:42:37.160Z,102433.11
2019-05-29T11:45:11.024Z,102440.47
2019-05-29T11:47:43.002Z,102431.05
2019-05-29T11:50:19.537Z,102410.83
2019-05-29T11:52:50.332Z,102439.23
2019-05-29T11:55:22.641Z,102434.95
2019-05-29T11:57:55.865Z,102439.38
2019-05-29T12:00:29.497Z,102447.34
2019-05-29T12:03:01.785Z,102449.73
2019-05-29T12:05:33.836Z,102437.36
2019-05-29T12:08:06.533Z,102436.90
2019-05-29T12:10:38.483Z,102427.48
2019-05-29T12:13:10.629Z,102438.76
2019-05-29T12:15:42.945Z,102443.31
2019-05-29T12:18:23.450Z,102448.91
2019-05-29T12:20:49.633Z,102442.14
2019-05-29T12:23:26.258Z,102453.70
2019-05-29T12:26:18.840Z,102445.43
2019-05-29T12:28:29.369Z,102437.25
2019-05-29T12:31:03.361Z,102437.33
2019-05-29T12:33:35.726Z,102451.70
2019-05-29T12:36:08.093Z,102462.31
2019-05-29T12:38:40.457Z,102455.75
2019-05-29T12:41:12.749Z,102449.96
2019-05-29T12:43:44.697Z,102448.93
2019-05-29T12:46:16.843Z,102452.67
2019-05-29T12:48:49.087Z,102463.93
2019-05-29T12:51:22.198Z,102453.92
2019-05-29T12:53:55.767Z,102458.70
2019-05-29T12:56:28.131Z,102455.23
2019-05-29T12:59:00.569Z,102462.31
2019-05-29T13:01:32.675Z,102467.20
2019-05-29T13:04:05.045Z,102462.02
2019-05-29T13:06:37.048Z,102458.79
2019-05-29T13:09:10.134Z,102454.36
2019-05-29T13:11:42.105Z,102461.47
2019-05-29T13:14:14.163Z,102468.14
2019-05-29T13:16:46.450Z,102446.71
2019-05-29T13:19:18.401Z,102397.14
2019-05-29T13:21:50.510Z,102450.41
2019-05-29T13:24:22.473Z,102454.52
2019-05-29T13:26:55.504Z,102459.33
2019-05-29T13:29:27.591Z,102449.49
2019-05-29T13:32:00.317Z,102450.85
2019-05-29T13:34:33.370Z,102442.09
2019-05-29T13:37:08.021Z,102395.35
2019-05-29T13:39:39.398Z,102442.47
2019-05-29T13:42:12.238Z,102445.43
2019-05-29T13:44:44.341Z,102442.97
2019-05-29T13:47:16.325Z,102449.00
2019-05-29T13:49:48.399Z,102442.64
2019-05-29T13:52:20.407Z,102454.85
2019-05-29T13:54:52.384Z,102446.49
2019-05-29T13:57:24.487Z,102453.02
2019-05-29T13:59:57.825Z,102451.66
2019-05-29T14:02:30.207Z,102449.50
2019-05-29T14:05:02.806Z,102446.65
2019-05-29T14:07:35.019Z,102451.66
2019-05-29T14:10:09.700Z,102451.78
2019-05-29T14:12:41.761Z,102460.11
2019-05-29T14:15:14.623Z,102448.80
2019-05-29T14:17:46.717Z,102449.55
2019-05-29T14:20:19.578Z,102456.31
2019-05-29T14:22:52.513Z,102459.12
2019-05-29T14:25:24.873Z,102462.20
2019-05-29T14:27:57.241Z,102455.89
2019-05-29T14:30:29.729Z,102458.72
2019-05-29T14:33:02.339Z,102467.53
2019-05-29T14:35:34.474Z,102463.75
2019-05-29T14:38:09.867Z,102459.81
2019-05-29T14:40:40.557Z,102460.70
2019-05-29T14:43:15.569Z,102456.63
2019-05-29T14:45:46.496Z,102462.83
2019-05-29T14:48:18.574Z,102460.24
2019-05-29T14:50:50.749Z,102470.64
2019-05-29T14:53:22.723Z,102468.36
2019-05-29T14:55:54.984Z,102462.83
2019-05-29T14:58:27.155Z,102469.77
2019-05-29T15:00:59.115Z,102470.48
2019-05-29T15:03:31.113Z,102467.11
2019-05-29T15:06:03.543Z,102470.48
2019-05-29T15:08:35.555Z,102471.91
2019-05-29T15:11:24.504Z,102470.41
2019-05-29T15:13:56.590Z,102475.66
2019-05-29T15:17:10.974Z,102475.60
2019-05-29T15:20:05.330Z,102471.95
2019-05-29T15:29:30.395Z,102475.79
2019-05-29T15:43:49.309Z,102475.64
2019-05-29T15:57:31.666Z,102479.75
2019-05-29T16:00:07.090Z,102476.64
2019-05-29T16:02:39.203Z,102478.00
2019-05-29T16:05:15.414Z,102471.09
2019-05-29T16:07:47.591Z,102474.69
2019-05-29T16:10:21.360Z,102470.26
2019-05-29T16:12:53.386Z,102468.95
2019-05-29T16:15:25.462Z,102460.66
2019-05-29T16:17:57.609Z,102461.28
2019-05-29T16:20:29.575Z,102461.64
2019-05-29T16:23:01.551Z,102469.12
2019-05-29T16:25:40.220Z,102468.23
2019-05-29T16:28:07.407Z,102469.03
2019-05-29T16:30:39.390Z,102474.55
2019-05-29T16:33:12.835Z,102465.73
2019-05-29T16:35:45.230Z,102472.53
2019-05-29T16:38:17.694Z,102466.73
2019-05-29T16:40:50.017Z,102468.89
2019-05-29T16:43:22.372Z,102471.73
2019-05-29T16:45:54.617Z,102471.89
2019-05-29T16:48:26.600Z,102475.16
2019-05-29T16:50:58.672Z,102473.13
2019-05-29T16:53:30.627Z,102472.18
2019-05-29T16:56:02.670Z,102476.02
2019-05-29T16:58:34.829Z,102478.54
2019-05-29T17:01:07.015Z,102478.30
2019-05-29T17:03:39.194Z,102474.59
2019-05-29T17:06:11.404Z,102475.73
2019-05-29T17:08:43.986Z,102472.58
2019-05-29T17:11:16.420Z,102464.98
2019-05-29T17:13:49.630Z,102467.42
2019-05-29T17:16:23.160Z,102469.05
2019-05-29T17:18:55.781Z,102467.94
2019-05-29T17:21:28.018Z,102470.09
2019-05-29T17:24:00.260Z,102474.33
2019-05-29T17:26:32.287Z,102472.14
2019-05-29T17:29:04.255Z,102475.72
2019-05-29T17:31:36.275Z,102479.45
2019-05-29T17:34:08.200Z,102474.92
2019-05-29T17:36:40.153Z,102474.39
2019-05-29T17:39:12.424Z,102478.91
2019-05-29T17:41:44.594Z,102474.09
2019-05-29T17:44:17.419Z,102477.83
2019-05-29T17:46:49.450Z,102474.08
2019-05-29T17:49:30.341Z,102470.38
2019-05-29T17:51:55.308Z,102467.34
2019-05-29T17:54:27.689Z,102474.59
2019-05-29T17:56:59.647Z,102472.25
2019-05-29T17:59:31.635Z,102474.35
2019-05-29T18:02:04.089Z,102473.01
2019-05-29T18:04:36.325Z,102477.28
2019-05-29T18:07:08.386Z,102476.99
2019-05-29T18:09:40.436Z,102477.83
2019-05-29T18:12:12.410Z,102481.02
2019-05-29T18:14:44.491Z,102478.13
2019-05-29T18:17:17.486Z,102483.16
2019-05-29T18:19:49.607Z,102483.30
2019-05-29T18:22:21.690Z,102483.91
2019-05-29T18:24:53.659Z,102485.68
2019-05-29T18:27:26.031Z,102483.37
2019-05-29T18:30:08.242Z,102484.27
2019-05-29T18:32:40.282Z,102486.30
2019-05-29T18:35:12.601Z,102486.35
2019-05-29T18:37:44.605Z,102485.50
2019-05-29T18:40:17.450Z,102489.59
2019-05-29T18:42:49.376Z,102498.05
2019-05-29T18:45:24.757Z,102493.87
2019-05-29T18:47:56.733Z,102494.19
2019-05-29T18:50:29.694Z,102495.33
2019-05-29T18:53:01.940Z,102497.02
2019-05-29T18:55:33.923Z,102494.36
2019-05-29T18:58:05.995Z,102495.92
2019-05-29T19:00:38.058Z,102496.44
2019-05-29T19:03:10.044Z,102491.55
2019-05-29T19:05:43.308Z,102495.95
2019-05-29T19:08:15.303Z,102493.27
2019-05-29T19:10:47.582Z,102493.85
2019-05-29T19:13:19.605Z,102496.37
2019-05-29T19:15:51.565Z,102491.52
2019-05-29T19:18:24.104Z,102498.22
2019-05-29T19:20:56.169Z,102505.83
2019-05-29T19:23:28.745Z,102506.22
2019-05-29T19:26:00.783Z,102500.78
2019-05-29T19:28:32.915Z,102508.73
2019-05-29T19:31:05.032Z,102516.25
2019-05-29T19:33:37.642Z,102518.63
2019-05-29T19:36:09.874Z,102515.58
2019-05-29T19:38:41.862Z,102515.27
2019-05-29T19:41:13.897Z,102517.20
2019-05-29T19:43:45.925Z,102524.91
2019-05-29T19:46:17.909Z,102530.88
2019-05-29T19:48:50.166Z,102537.06
2019-05-29T19:51:22.105Z,102528.64
2019-05-29T19:53:54.102Z,102527.92
2019-05-29T19:56:26.061Z,102532.48
2019-05-29T19:58:58.002Z,102528.64
2019-05-29T20:01:35.655Z,102537.41
2019-05-29T20:04:03.985Z,102480.64
2019-05-29T20:06:37.152Z,102546.58
2019-05-29T20:09:09.409Z,102540.64
2019-05-29T20:11:41.471Z,102541.38
2019-05-29T20:14:13.579Z,102550.07
2019-05-29T20:16:45.623Z,102547.54
2019-05-29T20:19:17.705Z,102547.99
2019-05-29T20:21:49.943Z,102556.97
2019-05-29T20:24:22.062Z,102550.88
2019-05-29T20:26:54.395Z,102561.17
2019-05-29T20:29:26.501Z,102563.08
2019-05-29T20:31:58.588Z,102568.27
2019-05-29T20:34:30.742Z,102570.16
2019-05-29T20:37:04.664Z,102571.73
2019-05-29T20:39:36.759Z,102571.20
2019-05-29T20:42:09.625Z,102567.42
2019-05-29T20:44:42.997Z,102569.73
2019-05-29T20:47:15.243Z,102569.97
2019-05-29T20:49:47.737Z,102567.66
2019-05-29T20:52:19.907Z,102570.19
2019-05-29T20:54:51.937Z,102577.08
2019-05-29T20:57:23.977Z,102573.55
2019-05-29T20:59:56.089Z,102574.66
2019-05-29T21:02:29.903Z,102572.56
2019-05-29T21:05:01.958Z,102572.42
2019-05-29T21:07:34.621Z,102579.63
2019-05-29T21:10:08.406Z,102576.22
2019-05-29T21:12:44.272Z,102571.65
2019-05-29T21:15:14.568Z,102577.52
2019-05-29T21:17:46.604Z,102576.66
2019-05-29T21:20:18.996Z,102580.81
2019-05-29T21:22:51.217Z,102582.47
2019-05-29T21:25:23.198Z,102579.13
2019-05-29T21:27:55.324Z,102578.94
2019-05-29T21:30:27.631Z,102580.48
2019-05-29T21:32:59.564Z,102581.50
2019-05-29T21:35:31.596Z,102581.89
2019-05-29T21:38:03.645Z,102586.31
2019-05-29T21:40:36.305Z,102589.28
2019-05-29T21:43:08.546Z,102585.93
2019-05-29T21:45:41.032Z,102591.67
2019-05-29T21:48:13.099Z,102591.23
2019-05-29T21:50:45.517Z,102591.12
2019-05-29T21:53:17.568Z,102594.86
2019-05-29T21:55:49.534Z,102595.57
2019-05-29T21:58:21.513Z,102596.39
2019-05-29T22:00:54.156Z,102594.47
2019-05-29T22:03:26.214Z,102599.58
2019-05-29T22:05:58.296Z,102595.38
2019-05-29T22:08:30.328Z,102596.64
2019-05-29T22:11:02.484Z,102592.90
2019-05-29T22:13:34.696Z,102594.58
2019-05-29T22:16:07.220Z,102591.61
2019-05-29T22:18:40.569Z,102594.19
2019-05-29T22:21:14.912Z,102593.84
2019-05-29T22:23:47.943Z,102593.44
2019-05-29T22:26:20.759Z,102596.73
2019-05-29T22:28:53.185Z,102593.70
2019-05-29T22:31:25.228Z,102590.41
2019-05-29T22:33:57.490Z,102596.36
2019-05-29T22:36:29.813Z,102592.91
2019-05-29T22:39:01.872Z,102592.13
2019-05-29T22:41:33.916Z,102587.73
2019-05-29T22:44:06.571Z,102585.27
2019-05-29T22:46:38.755Z,102589.52
2019-05-29T22:49:10.751Z,102584.52
2019-05-29T22:51:42.774Z,102584.06
2019-05-29T22:54:14.822Z,102580.74
2019-05-29T22:56:46.761Z,102580.27
2019-05-29T22:59:31.390Z,102573.13
2019-05-29T23:01:52.504Z,102511.67
2019-05-29T23:04:24.489Z,102570.70
2019-05-29T23:06:56.554Z,102568.64
2019-05-29T23:09:28.571Z,102571.38
2019-05-29T23:12:00.533Z,102569.52
2019-05-29T23:14:32.635Z,102573.40
2019-05-29T23:17:04.612Z,102568.95
2019-05-29T23:19:36.568Z,102575.06
2019-05-29T23:22:08.535Z,102509.17
2019-05-29T23:24:40.627Z,102509.69
2019-05-29T23:27:12.604Z,102568.36
2019-05-29T23:29:48.868Z,102570.59
2019-05-29T23:32:18.239Z,102566.91
2019-05-29T23:34:50.320Z,102566.39
2019-05-29T23:37:22.401Z,102567.31
2019-05-29T23:39:55.047Z,102567.09
2019-05-29T23:42:27.069Z,102563.79
2019-05-29T23:44:59.478Z,102554.79
2019-05-29T23:47:31.487Z,102559.23
2019-05-29T23:50:04.981Z,102561.23
2019-05-29T23:52:37.038Z,102556.66
2019-05-29T23:55:09.762Z,102545.46
2019-05-29T23:57:41.746Z,102543.06
